sensor_id;sensor_type;location;lat;lon;timestamp;temperature;humidity
6666;DHT22;3369;49.906;8.598;2023-04-06T00:01:42;1.20;84.70
6666;DHT22;3369;49.906;8.598;2023-04-06T00:04:07;1.20;84.80
6666;DHT22;3369;49.906;8.598;2023-04-06T00:06:33;1.20;85.00
6666;DHT22;3369;49.906;8.598;2023-04-06T00:09:00;1.10;85.20
6666;DHT22;3369;49.906;8.598;2023-04-06T00:11:26;1.10;85.40
6666;DHT22;3369;49.906;8.598;2023-04-06T00:13:52;1.00;85.50
6666;DHT22;3369;49.906;8.598;2023-04-06T00:16:18;1.00;85.40
6666;DHT22;3369;49.906;8.598;2023-04-06T00:18:43;1.00;85.60
6666;DHT22;3369;49.906;8.598;2023-04-06T00:21:12;1.00;85.70
6666;DHT22;3369;49.906;8.598;2023-04-06T00:23:38;1.00;85.80
6666;DHT22;3369;49.906;8.598;2023-04-06T00:26:04;1.00;85.90
6666;DHT22;3369;49.906;8.598;2023-04-06T00:28:30;1.00;86.00
6666;DHT22;3369;49.906;8.598;2023-04-06T00:30:56;0.90;86.30
6666;DHT22;3369;49.906;8.598;2023-04-06T00:33:22;0.90;86.60
6666;DHT22;3369;49.906;8.598;2023-04-06T00:35:48;0.90;87.10
6666;DHT22;3369;49.906;8.598;2023-04-06T00:38:15;0.80;87.20
6666;DHT22;3369;49.906;8.598;2023-04-06T00:40:41;0.80;87.50
6666;DHT22;3369;49.906;8.598;2023-04-06T00:43:07;0.80;87.60
6666;DHT22;3369;49.906;8.598;2023-04-06T00:45:34;0.80;87.80
6666;DHT22;3369;49.906;8.598;2023-04-06T00:48:00;0.80;88.10
6666;DHT22;3369;49.906;8.598;2023-04-06T00:50:27;0.70;88.50
6666;DHT22;3369;49.906;8.598;2023-04-06T00:52:53;0.70;88.70
6666;DHT22;3369;49.906;8.598;2023-04-06T00:55:19;0.80;88.80
6666;DHT22;3369;49.906;8.598;2023-04-06T00:57:44;0.70;89.00
6666;DHT22;3369;49.906;8.598;2023-04-06T01:00:11;0.80;89.10
6666;DHT22;3369;49.906;8.598;2023-04-06T01:02:38;0.80;89.30
6666;DHT22;3369;49.906;8.598;2023-04-06T01:05:04;0.80;89.40
6666;DHT22;3369;49.906;8.598;2023-04-06T01:07:30;0.80;89.50
6666;DHT22;3369;49.906;8.598;2023-04-06T01:29:54;0.60;90.20
6666;DHT22;3369;49.906;8.598;2023-04-06T01:32:20;0.50;90.60
6666;DHT22;3369;49.906;8.598;2023-04-06T01:34:46;0.50;90.60
6666;DHT22;3369;49.906;8.598;2023-04-06T01:37:12;0.50;90.50
6666;DHT22;3369;49.906;8.598;2023-04-06T01:39:37;0.50;90.50
6666;DHT22;3369;49.906;8.598;2023-04-06T01:42:03;0.60;90.90
6666;DHT22;3369;49.906;8.598;2023-04-06T01:44:29;0.60;90.80
6666;DHT22;3369;49.906;8.598;2023-04-06T01:46:56;0.60;91.00
6666;DHT22;3369;49.906;8.598;2023-04-06T01:49:22;0.50;91.10
6666;DHT22;3369;49.906;8.598;2023-04-06T01:51:47;0.60;91.20
6666;DHT22;3369;49.906;8.598;2023-04-06T01:54:13;0.50;91.30
6666;DHT22;3369;49.906;8.598;2023-04-06T01:56:39;0.50;91.30
6666;DHT22;3369;49.906;8.598;2023-04-06T01:59:05;0.40;91.50
6666;DHT22;3369;49.906;8.598;2023-04-06T02:01:31;0.30;91.60
6666;DHT22;3369;49.906;8.598;2023-04-06T02:03:57;0.20;91.80
6666;DHT22;3369;49.906;8.598;2023-04-06T02:06:23;0.20;91.90
6666;DHT22;3369;49.906;8.598;2023-04-06T02:08:48;0.10;91.90
6666;DHT22;3369;49.906;8.598;2023-04-06T02:11:14;0.10;92.10
6666;DHT22;3369;49.906;8.598;2023-04-06T02:13:40;0.10;92.20
6666;DHT22;3369;49.906;8.598;2023-04-06T02:16:05;0.10;92.20
6666;DHT22;3369;49.906;8.598;2023-04-06T02:18:31;0.10;92.30
6666;DHT22;3369;49.906;8.598;2023-04-06T02:20:57;0.00;92.30
6666;DHT22;3369;49.906;8.598;2023-04-06T02:23:22;0.00;92.40
6666;DHT22;3369;49.906;8.598;2023-04-06T02:25:48;-0.10;92.40
6666;DHT22;3369;49.906;8.598;2023-04-06T02:28:14;-0.10;92.60
6666;DHT22;3369;49.906;8.598;2023-04-06T02:30:40;-0.20;92.70
6666;DHT22;3369;49.906;8.598;2023-04-06T02:33:05;-0.20;92.80
6666;DHT22;3369;49.906;8.598;2023-04-06T02:35:31;-0.20;92.90
6666;DHT22;3369;49.906;8.598;2023-04-06T02:37:57;-0.20;93.10
6666;DHT22;3369;49.906;8.598;2023-04-06T02:40:23;-0.20;93.40
6666;DHT22;3369;49.906;8.598;2023-04-06T02:42:48;-0.20;93.10
6666;DHT22;3369;49.906;8.598;2023-04-06T02:45:14;-0.20;93.30
6666;DHT22;3369;49.906;8.598;2023-04-06T02:47:39;-0.20;93.30
6666;DHT22;3369;49.906;8.598;2023-04-06T02:50:05;-0.20;93.40
6666;DHT22;3369;49.906;8.598;2023-04-06T02:52:32;-0.20;93.60
6666;DHT22;3369;49.906;8.598;2023-04-06T02:54:57;-0.20;93.80
6666;DHT22;3369;49.906;8.598;2023-04-06T02:57:23;-0.20;93.90
6666;DHT22;3369;49.906;8.598;2023-04-06T02:59:49;-0.30;94.10
6666;DHT22;3369;49.906;8.598;2023-04-06T03:02:14;-0.30;94.10
6666;DHT22;3369;49.906;8.598;2023-04-06T03:04:40;-0.30;94.20
6666;DHT22;3369;49.906;8.598;2023-04-06T03:07:06;-0.30;94.30
6666;DHT22;3369;49.906;8.598;2023-04-06T03:09:31;-0.30;94.40
6666;DHT22;3369;49.906;8.598;2023-04-06T03:11:57;-0.30;94.50
6666;DHT22;3369;49.906;8.598;2023-04-06T03:14:22;-0.30;94.60
6666;DHT22;3369;49.906;8.598;2023-04-06T03:16:48;-0.30;94.60
6666;DHT22;3369;49.906;8.598;2023-04-06T03:19:14;-0.30;94.70
6666;DHT22;3369;49.906;8.598;2023-04-06T03:21:40;-0.30;94.80
6666;DHT22;3369;49.906;8.598;2023-04-06T03:24:07;-0.40;94.80
6666;DHT22;3369;49.906;8.598;2023-04-06T03:26:33;-0.40;94.90
6666;DHT22;3369;49.906;8.598;2023-04-06T03:28:58;-0.40;94.90
6666;DHT22;3369;49.906;8.598;2023-04-06T03:31:24;-0.40;95.00
6666;DHT22;3369;49.906;8.598;2023-04-06T03:33:50;-0.40;95.10
6666;DHT22;3369;49.906;8.598;2023-04-06T03:36:15;-0.40;95.20
6666;DHT22;3369;49.906;8.598;2023-04-06T03:38:41;-0.40;95.20
6666;DHT22;3369;49.906;8.598;2023-04-06T03:41:07;-0.50;95.30
6666;DHT22;3369;49.906;8.598;2023-04-06T03:43:32;-0.50;95.30
6666;DHT22;3369;49.906;8.598;2023-04-06T03:45:58;-0.60;95.30
6666;DHT22;3369;49.906;8.598;2023-04-06T03:48:23;-0.60;95.40
6666;DHT22;3369;49.906;8.598;2023-04-06T03:50:49;-0.70;95.60
6666;DHT22;3369;49.906;8.598;2023-04-06T03:53:15;-0.60;95.70
6666;DHT22;3369;49.906;8.598;2023-04-06T03:55:40;-0.60;95.70
6666;DHT22;3369;49.906;8.598;2023-04-06T03:58:06;-0.60;95.80
6666;DHT22;3369;49.906;8.598;2023-04-06T04:00:32;-0.60;95.90
6666;DHT22;3369;49.906;8.598;2023-04-06T04:02:58;-0.60;96.00
6666;DHT22;3369;49.906;8.598;2023-04-06T04:05:24;-0.60;96.00
6666;DHT22;3369;49.906;8.598;2023-04-06T04:07:51;-0.60;96.00
6666;DHT22;3369;49.906;8.598;2023-04-06T04:10:17;-0.60;96.00
6666;DHT22;3369;49.906;8.598;2023-04-06T04:12:43;-0.60;96.10
6666;DHT22;3369;49.906;8.598;2023-04-06T04:15:09;-0.70;96.10
6666;DHT22;3369;49.906;8.598;2023-04-06T04:17:35;-0.70;96.10
6666;DHT22;3369;49.906;8.598;2023-04-06T04:20:01;-0.80;96.20
6666;DHT22;3369;49.906;8.598;2023-04-06T04:22:26;-0.80;96.30
6666;DHT22;3369;49.906;8.598;2023-04-06T04:24:53;-0.80;96.40
6666;DHT22;3369;49.906;8.598;2023-04-06T04:27:19;-0.80;96.50
6666;DHT22;3369;49.906;8.598;2023-04-06T04:29:45;-0.80;96.50
6666;DHT22;3369;49.906;8.598;2023-04-06T04:32:11;-0.80;96.60
6666;DHT22;3369;49.906;8.598;2023-04-06T04:34:37;-0.80;96.70
6666;DHT22;3369;49.906;8.598;2023-04-06T04:37:05;-0.80;96.80
6666;DHT22;3369;49.906;8.598;2023-04-06T04:39:31;-0.90;96.80
6666;DHT22;3369;49.906;8.598;2023-04-06T04:41:57;-0.90;97.00
6666;DHT22;3369;49.906;8.598;2023-04-06T04:44:23;-0.90;97.00
6666;DHT22;3369;49.906;8.598;2023-04-06T04:46:48;-0.90;97.20
6666;DHT22;3369;49.906;8.598;2023-04-06T04:49:14;-0.90;97.20
6666;DHT22;3369;49.906;8.598;2023-04-06T04:51:40;-0.90;97.30
6666;DHT22;3369;49.906;8.598;2023-04-06T04:54:05;-0.90;97.30
6666;DHT22;3369;49.906;8.598;2023-04-06T04:56:31;-0.90;97.40
6666;DHT22;3369;49.906;8.598;2023-04-06T04:58:57;-0.90;97.50
6666;DHT22;3369;49.906;8.598;2023-04-06T05:01:22;-1.00;97.60
6666;DHT22;3369;49.906;8.598;2023-04-06T05:03:48;-1.00;97.60
6666;DHT22;3369;49.906;8.598;2023-04-06T05:06:13;-1.00;97.70
6666;DHT22;3369;49.906;8.598;2023-04-06T05:08:40;-1.00;97.80
6666;DHT22;3369;49.906;8.598;2023-04-06T05:11:06;-1.00;97.80
6666;DHT22;3369;49.906;8.598;2023-04-06T05:13:32;-1.00;97.90
6666;DHT22;3369;49.906;8.598;2023-04-06T05:15:58;-1.00;98.00
6666;DHT22;3369;49.906;8.598;2023-04-06T05:18:23;-0.90;98.20
6666;DHT22;3369;49.906;8.598;2023-04-06T05:20:49;-0.90;98.20
6666;DHT22;3369;49.906;8.598;2023-04-06T05:23:17;-1.00;98.30
6666;DHT22;3369;49.906;8.598;2023-04-06T05:25:42;-1.00;98.40
6666;DHT22;3369;49.906;8.598;2023-04-06T05:28:08;-0.90;98.50
6666;DHT22;3369;49.906;8.598;2023-04-06T05:30:34;-0.90;98.60
6666;DHT22;3369;49.906;8.598;2023-04-06T05:33:01;-0.80;98.80
6666;DHT22;3369;49.906;8.598;2023-04-06T05:35:26;-0.80;98.70
6666;DHT22;3369;49.906;8.598;2023-04-06T05:37:52;-0.70;98.70
6666;DHT22;3369;49.906;8.598;2023-04-06T05:40:18;-0.70;98.70
6666;DHT22;3369;49.906;8.598;2023-04-06T05:42:43;-0.60;98.80
6666;DHT22;3369;49.906;8.598;2023-04-06T05:45:10;-0.50;99.00
6666;DHT22;3369;49.906;8.598;2023-04-06T05:47:37;-0.40;99.00
6666;DHT22;3369;49.906;8.598;2023-04-06T05:50:03;-0.40;99.00
6666;DHT22;3369;49.906;8.598;2023-04-06T05:52:29;-0.30;99.20
6666;DHT22;3369;49.906;8.598;2023-04-06T05:54:54;-0.30;99.20
6666;DHT22;3369;49.906;8.598;2023-04-06T05:57:20;-0.30;99.30
6666;DHT22;3369;49.906;8.598;2023-04-06T05:59:46;-0.20;99.30
6666;DHT22;3369;49.906;8.598;2023-04-06T06:02:11;-0.20;99.30
6666;DHT22;3369;49.906;8.598;2023-04-06T06:04:37;-0.10;99.40
6666;DHT22;3369;49.906;8.598;2023-04-06T06:07:03;0.00;99.50
6666;DHT22;3369;49.906;8.598;2023-04-06T06:09:29;0.10;99.60
6666;DHT22;3369;49.906;8.598;2023-04-06T06:11:54;0.10;99.70
6666;DHT22;3369;49.906;8.598;2023-04-06T06:14:20;0.20;99.70
6666;DHT22;3369;49.906;8.598;2023-04-06T06:16:47;0.30;99.80
6666;DHT22;3369;49.906;8.598;2023-04-06T06:19:13;0.50;99.90
6666;DHT22;3369;49.906;8.598;2023-04-06T06:21:39;0.60;99.90
6666;DHT22;3369;49.906;8.598;2023-04-06T06:24:05;0.70;99.90
6666;DHT22;3369;49.906;8.598;2023-04-06T06:26:31;0.80;99.90
6666;DHT22;3369;49.906;8.598;2023-04-06T06:28:57;1.00;99.90
6666;DHT22;3369;49.906;8.598;2023-04-06T06:31:22;1.10;99.90
6666;DHT22;3369;49.906;8.598;2023-04-06T06:33:49;1.30;99.90
6666;DHT22;3369;49.906;8.598;2023-04-06T06:36:18;1.50;99.90
6666;DHT22;3369;49.906;8.598;2023-04-06T06:38:44;1.50;99.90
6666;DHT22;3369;49.906;8.598;2023-04-06T06:41:10;1.70;99.90
6666;DHT22;3369;49.906;8.598;2023-04-06T06:43:36;1.70;99.90
6666;DHT22;3369;49.906;8.598;2023-04-06T06:46:02;1.80;99.90
6666;DHT22;3369;49.906;8.598;2023-04-06T06:48:28;1.90;99.90
6666;DHT22;3369;49.906;8.598;2023-04-06T06:50:54;2.00;99.90
6666;DHT22;3369;49.906;8.598;2023-04-06T07:13:28;3.20;97.80
6666;DHT22;3369;49.906;8.598;2023-04-06T07:15:54;3.30;97.90
6666;DHT22;3369;49.906;8.598;2023-04-06T07:18:20;3.50;97.80
6666;DHT22;3369;49.906;8.598;2023-04-06T07:20:46;3.80;98.00
6666;DHT22;3369;49.906;8.598;2023-04-06T07:23:12;4.00;97.70
6666;DHT22;3369;49.906;8.598;2023-04-06T07:25:37;4.20;97.20
6666;DHT22;3369;49.906;8.598;2023-04-06T07:28:03;4.40;96.90
6666;DHT22;3369;49.906;8.598;2023-04-06T07:30:29;4.50;96.20
6666;DHT22;3369;49.906;8.598;2023-04-06T07:32:55;4.70;95.70
6666;DHT22;3369;49.906;8.598;2023-04-06T07:35:23;4.90;95.30
6666;DHT22;3369;49.906;8.598;2023-04-06T07:37:49;5.10;95.40
6666;DHT22;3369;49.906;8.598;2023-04-06T07:40:15;5.20;94.00
6666;DHT22;3369;49.906;8.598;2023-04-06T07:42:40;5.30;93.60
6666;DHT22;3369;49.906;8.598;2023-04-06T07:45:06;5.40;93.30
6666;DHT22;3369;49.906;8.598;2023-04-06T07:47:33;5.50;93.20
6666;DHT22;3369;49.906;8.598;2023-04-06T07:49:58;5.70;93.10
6666;DHT22;3369;49.906;8.598;2023-04-06T07:52:24;5.90;93.00
6666;DHT22;3369;49.906;8.598;2023-04-06T07:54:50;6.10;92.70
6666;DHT22;3369;49.906;8.598;2023-04-06T07:57:16;6.20;92.40
6666;DHT22;3369;49.906;8.598;2023-04-06T07:59:42;6.40;92.40
6666;DHT22;3369;49.906;8.598;2023-04-06T08:02:07;6.50;92.20
6666;DHT22;3369;49.906;8.598;2023-04-06T08:04:33;6.70;91.20
6666;DHT22;3369;49.906;8.598;2023-04-06T08:06:59;6.70;91.10
6666;DHT22;3369;49.906;8.598;2023-04-06T08:09:25;6.80;91.10
6666;DHT22;3369;49.906;8.598;2023-04-06T08:11:50;6.90;91.40
6666;DHT22;3369;49.906;8.598;2023-04-06T08:14:16;7.00;91.10
6666;DHT22;3369;49.906;8.598;2023-04-06T08:16:42;7.20;90.70
6666;DHT22;3369;49.906;8.598;2023-04-06T08:19:08;7.20;90.20
6666;DHT22;3369;49.906;8.598;2023-04-06T08:21:35;7.30;90.10
6666;DHT22;3369;49.906;8.598;2023-04-06T08:24:01;7.40;90.10
6666;DHT22;3369;49.906;8.598;2023-04-06T08:26:28;7.50;90.40
6666;DHT22;3369;49.906;8.598;2023-04-06T08:28:54;7.70;90.10
6666;DHT22;3369;49.906;8.598;2023-04-06T08:31:19;7.90;89.20
6666;DHT22;3369;49.906;8.598;2023-04-06T08:33:45;8.10;90.00
6666;DHT22;3369;49.906;8.598;2023-04-06T08:36:12;8.20;87.80
6666;DHT22;3369;49.906;8.598;2023-04-06T08:38:39;8.30;87.30
6666;DHT22;3369;49.906;8.598;2023-04-06T08:41:13;8.50;88.00
6666;DHT22;3369;49.906;8.598;2023-04-06T08:43:59;8.70;86.70
6666;DHT22;3369;49.906;8.598;2023-04-06T08:46:25;8.90;87.20
6666;DHT22;3369;49.906;8.598;2023-04-06T08:48:58;9.10;85.00
6666;DHT22;3369;49.906;8.598;2023-04-06T08:51:24;9.20;85.10
6666;DHT22;3369;49.906;8.598;2023-04-06T08:53:53;9.30;83.40
6666;DHT22;3369;49.906;8.598;2023-04-06T08:56:21;9.40;83.20
6666;DHT22;3369;49.906;8.598;2023-04-06T08:58:48;9.50;80.80
6666;DHT22;3369;49.906;8.598;2023-04-06T09:01:14;9.50;81.10
6666;DHT22;3369;49.906;8.598;2023-04-06T09:03:43;9.60;80.30
6666;DHT22;3369;49.906;8.598;2023-04-06T09:06:09;9.70;78.40
6666;DHT22;3369;49.906;8.598;2023-04-06T09:08:38;9.70;77.80
6666;DHT22;3369;49.906;8.598;2023-04-06T09:11:05;9.80;78.40
6666;DHT22;3369;49.906;8.598;2023-04-06T09:13:31;9.90;79.20
6666;DHT22;3369;49.906;8.598;2023-04-06T09:16:04;10.00;77.80
6666;DHT22;3369;49.906;8.598;2023-04-06T09:18:32;10.10;76.30
6666;DHT22;3369;49.906;8.598;2023-04-06T09:21:03;10.20;76.30
6666;DHT22;3369;49.906;8.598;2023-04-06T09:23:30;10.40;76.90
6666;DHT22;3369;49.906;8.598;2023-04-06T09:28:47;10.70;75.20
6666;DHT22;3369;49.906;8.598;2023-04-06T09:31:14;10.80;73.60
6666;DHT22;3369;49.906;8.598;2023-04-06T09:33:42;10.90;74.70
6666;DHT22;3369;49.906;8.598;2023-04-06T09:36:07;11.00;75.90
6666;DHT22;3369;49.906;8.598;2023-04-06T09:38:37;11.10;74.80
6666;DHT22;3369;49.906;8.598;2023-04-06T09:41:03;11.20;74.90
6666;DHT22;3369;49.906;8.598;2023-04-06T09:43:29;11.30;75.10
6666;DHT22;3369;49.906;8.598;2023-04-06T09:45:56;11.30;73.20
6666;DHT22;3369;49.906;8.598;2023-04-06T09:48:24;11.40;73.50
6666;DHT22;3369;49.906;8.598;2023-04-06T09:50:54;11.60;74.70
6666;DHT22;3369;49.906;8.598;2023-04-06T09:53:21;11.70;74.50
6666;DHT22;3369;49.906;8.598;2023-04-06T09:55:52;11.90;74.30
6666;DHT22;3369;49.906;8.598;2023-04-06T09:58:23;12.10;74.90
6666;DHT22;3369;49.906;8.598;2023-04-06T10:01:07;12.20;73.30
6666;DHT22;3369;49.906;8.598;2023-04-06T10:04:01;12.30;71.40
6666;DHT22;3369;49.906;8.598;2023-04-06T10:06:31;12.30;71.70
6666;DHT22;3369;49.906;8.598;2023-04-06T10:08:59;12.40;72.30
6666;DHT22;3369;49.906;8.598;2023-04-06T10:11:27;12.50;70.40
6666;DHT22;3369;49.906;8.598;2023-04-06T10:13:55;12.50;71.40
6666;DHT22;3369;49.906;8.598;2023-04-06T10:16:22;12.50;71.50
6666;DHT22;3369;49.906;8.598;2023-04-06T10:18:53;12.60;71.30
6666;DHT22;3369;49.906;8.598;2023-04-06T10:21:23;12.70;68.90
6666;DHT22;3369;49.906;8.598;2023-04-06T10:23:53;12.70;68.90
6666;DHT22;3369;49.906;8.598;2023-04-06T10:26:22;12.80;67.80
6666;DHT22;3369;49.906;8.598;2023-04-06T10:28:49;12.90;67.80
6666;DHT22;3369;49.906;8.598;2023-04-06T10:31:27;12.90;67.70
6666;DHT22;3369;49.906;8.598;2023-04-06T10:33:57;13.10;68.70
6666;DHT22;3369;49.906;8.598;2023-04-06T10:36:25;13.20;66.50
6666;DHT22;3369;49.906;8.598;2023-04-06T10:39:02;13.30;65.20
6666;DHT22;3369;49.906;8.598;2023-04-06T10:41:45;13.40;65.80
6666;DHT22;3369;49.906;8.598;2023-04-06T10:44:23;13.40;66.60
6666;DHT22;3369;49.906;8.598;2023-04-06T10:46:57;13.40;66.70
6666;DHT22;3369;49.906;8.598;2023-04-06T10:49:25;13.40;67.00
6666;DHT22;3369;49.906;8.598;2023-04-06T10:51:55;13.50;64.10
6666;DHT22;3369;49.906;8.598;2023-04-06T10:54:22;13.40;63.70
6666;DHT22;3369;49.906;8.598;2023-04-06T10:56:49;13.50;64.30
6666;DHT22;3369;49.906;8.598;2023-04-06T10:59:21;13.50;64.50
6666;DHT22;3369;49.906;8.598;2023-04-06T11:01:49;13.60;65.20
6666;DHT22;3369;49.906;8.598;2023-04-06T11:04:19;13.60;62.30
6666;DHT22;3369;49.906;8.598;2023-04-06T11:06:49;13.60;60.70
6666;DHT22;3369;49.906;8.598;2023-04-06T11:09:28;13.60;61.10
6666;DHT22;3369;49.906;8.598;2023-04-06T11:11:55;13.60;61.30
6666;DHT22;3369;49.906;8.598;2023-04-06T11:14:22;13.70;62.10
6666;DHT22;3369;49.906;8.598;2023-04-06T11:16:48;13.80;60.60
6666;DHT22;3369;49.906;8.598;2023-04-06T11:19:15;13.80;62.30
6666;DHT22;3369;49.906;8.598;2023-04-06T11:21:46;13.70;60.60
6666;DHT22;3369;49.906;8.598;2023-04-06T11:29:07;13.80;58.80
6666;DHT22;3369;49.906;8.598;2023-04-06T11:31:40;13.90;56.50
6666;DHT22;3369;49.906;8.598;2023-04-06T11:36:45;14.10;56.80
6666;DHT22;3369;49.906;8.598;2023-04-06T11:39:22;14.10;56.80
6666;DHT22;3369;49.906;8.598;2023-04-06T11:41:51;14.20;56.10
6666;DHT22;3369;49.906;8.598;2023-04-06T11:44:35;14.10;54.80
6666;DHT22;3369;49.906;8.598;2023-04-06T11:47:03;14.20;54.50
6666;DHT22;3369;49.906;8.598;2023-04-06T11:49:30;14.10;53.10
6666;DHT22;3369;49.906;8.598;2023-04-06T11:51:57;14.10;54.30
6666;DHT22;3369;49.906;8.598;2023-04-06T11:54:50;14.00;54.10
6666;DHT22;3369;49.906;8.598;2023-04-06T11:57:17;14.10;55.40
6666;DHT22;3369;49.906;8.598;2023-04-06T11:59:44;14.10;53.50
6666;DHT22;3369;49.906;8.598;2023-04-06T12:02:10;14.00;53.80
6666;DHT22;3369;49.906;8.598;2023-04-06T12:04:36;14.00;53.90
6666;DHT22;3369;49.906;8.598;2023-04-06T12:07:03;13.90;55.30
6666;DHT22;3369;49.906;8.598;2023-04-06T12:09:29;14.10;56.00
6666;DHT22;3369;49.906;8.598;2023-04-06T12:11:55;14.20;56.10
6666;DHT22;3369;49.906;8.598;2023-04-06T12:14:21;14.20;53.50
6666;DHT22;3369;49.906;8.598;2023-04-06T12:16:47;14.20;53.70
6666;DHT22;3369;49.906;8.598;2023-04-06T12:19:13;14.10;53.50
6666;DHT22;3369;49.906;8.598;2023-04-06T12:21:39;14.20;54.80
6666;DHT22;3369;49.906;8.598;2023-04-06T12:24:06;14.20;53.80
6666;DHT22;3369;49.906;8.598;2023-04-06T12:26:32;14.20;54.50
6666;DHT22;3369;49.906;8.598;2023-04-06T12:29:01;14.20;54.00
6666;DHT22;3369;49.906;8.598;2023-04-06T12:31:32;14.20;54.00
6666;DHT22;3369;49.906;8.598;2023-04-06T12:33:58;14.20;53.10
6666;DHT22;3369;49.906;8.598;2023-04-06T12:36:24;14.00;52.60
6666;DHT22;3369;49.906;8.598;2023-04-06T12:38:50;13.90;52.80
6666;DHT22;3369;49.906;8.598;2023-04-06T12:41:17;13.90;53.00
6666;DHT22;3369;49.906;8.598;2023-04-06T12:43:43;13.80;52.70
6666;DHT22;3369;49.906;8.598;2023-04-06T12:46:10;13.80;53.00
6666;DHT22;3369;49.906;8.598;2023-04-06T12:48:36;13.70;53.50
6666;DHT22;3369;49.906;8.598;2023-04-06T12:51:04;13.80;53.80
6666;DHT22;3369;49.906;8.598;2023-04-06T12:53:30;13.90;55.20
6666;DHT22;3369;49.906;8.598;2023-04-06T12:55:57;14.00;54.30
6666;DHT22;3369;49.906;8.598;2023-04-06T12:58:24;14.20;54.00
6666;DHT22;3369;49.906;8.598;2023-04-06T13:00:52;14.30;52.90
6666;DHT22;3369;49.906;8.598;2023-04-06T13:03:21;14.20;52.00
6666;DHT22;3369;49.906;8.598;2023-04-06T13:05:51;14.20;52.60
6666;DHT22;3369;49.906;8.598;2023-04-06T13:29:55;13.90;52.30
6666;DHT22;3369;49.906;8.598;2023-04-06T13:32:21;14.00;53.40
6666;DHT22;3369;49.906;8.598;2023-04-06T13:34:47;14.20;54.00
6666;DHT22;3369;49.906;8.598;2023-04-06T13:37:15;14.30;52.80
6666;DHT22;3369;49.906;8.598;2023-04-06T13:39:41;14.40;53.50
6666;DHT22;3369;49.906;8.598;2023-04-06T13:42:06;14.60;53.00
6666;DHT22;3369;49.906;8.598;2023-04-06T13:44:32;14.70;53.20
6666;DHT22;3369;49.906;8.598;2023-04-06T13:46:58;14.90;53.30
6666;DHT22;3369;49.906;8.598;2023-04-06T13:49:25;14.80;51.70
6666;DHT22;3369;49.906;8.598;2023-04-06T13:51:50;14.70;51.20
6666;DHT22;3369;49.906;8.598;2023-04-06T13:54:16;14.50;52.10
6666;DHT22;3369;49.906;8.598;2023-04-06T13:56:42;14.30;52.60
6666;DHT22;3369;49.906;8.598;2023-04-06T13:59:08;14.30;51.50
6666;DHT22;3369;49.906;8.598;2023-04-06T14:01:33;14.20;52.10
6666;DHT22;3369;49.906;8.598;2023-04-06T14:03:59;14.20;52.00
6666;DHT22;3369;49.906;8.598;2023-04-06T14:06:25;14.10;52.60
6666;DHT22;3369;49.906;8.598;2023-04-06T14:08:51;14.20;52.90
6666;DHT22;3369;49.906;8.598;2023-04-06T14:11:17;14.20;53.60
6666;DHT22;3369;49.906;8.598;2023-04-06T14:13:43;14.20;51.70
6666;DHT22;3369;49.906;8.598;2023-04-06T14:16:08;14.10;50.90
6666;DHT22;3369;49.906;8.598;2023-04-06T14:18:35;14.00;51.60
6666;DHT22;3369;49.906;8.598;2023-04-06T14:21:01;13.90;51.30
6666;DHT22;3369;49.906;8.598;2023-04-06T14:23:30;13.90;51.50
6666;DHT22;3369;49.906;8.598;2023-04-06T14:26:06;13.80;51.90
6666;DHT22;3369;49.906;8.598;2023-04-06T14:28:33;13.80;52.20
6666;DHT22;3369;49.906;8.598;2023-04-06T14:31:02;13.80;52.30
6666;DHT22;3369;49.906;8.598;2023-04-06T14:33:30;13.80;51.60
6666;DHT22;3369;49.906;8.598;2023-04-06T14:35:56;13.70;52.30
6666;DHT22;3369;49.906;8.598;2023-04-06T14:38:22;13.70;51.70
6666;DHT22;3369;49.906;8.598;2023-04-06T14:40:48;13.70;51.80
6666;DHT22;3369;49.906;8.598;2023-04-06T14:43:14;13.60;51.40
6666;DHT22;3369;49.906;8.598;2023-04-06T14:45:40;13.60;51.50
6666;DHT22;3369;49.906;8.598;2023-04-06T14:48:06;13.50;50.40
6666;DHT22;3369;49.906;8.598;2023-04-06T14:50:32;13.50;51.20
6666;DHT22;3369;49.906;8.598;2023-04-06T14:52:59;13.50;51.00
6666;DHT22;3369;49.906;8.598;2023-04-06T14:55:26;13.40;51.40
6666;DHT22;3369;49.906;8.598;2023-04-06T14:57:51;13.40;51.70
6666;DHT22;3369;49.906;8.598;2023-04-06T15:00:17;13.50;51.50
6666;DHT22;3369;49.906;8.598;2023-04-06T15:02:43;13.50;52.00
6666;DHT22;3369;49.906;8.598;2023-04-06T15:05:09;13.50;52.40
6666;DHT22;3369;49.906;8.598;2023-04-06T15:07:34;13.50;52.70
6666;DHT22;3369;49.906;8.598;2023-04-06T15:10:00;13.50;51.80
6666;DHT22;3369;49.906;8.598;2023-04-06T15:12:26;13.50;51.50
6666;DHT22;3369;49.906;8.598;2023-04-06T15:14:51;13.50;51.30
6666;DHT22;3369;49.906;8.598;2023-04-06T15:17:17;13.40;51.30
6666;DHT22;3369;49.906;8.598;2023-04-06T15:19:43;13.40;52.10
6666;DHT22;3369;49.906;8.598;2023-04-06T15:22:08;13.40;52.20
6666;DHT22;3369;49.906;8.598;2023-04-06T15:24:36;13.40;51.20
6666;DHT22;3369;49.906;8.598;2023-04-06T15:27:02;13.40;51.00
6666;DHT22;3369;49.906;8.598;2023-04-06T15:29:30;13.40;51.20
6666;DHT22;3369;49.906;8.598;2023-04-06T15:31:56;13.40;51.50
6666;DHT22;3369;49.906;8.598;2023-04-06T15:34:21;13.40;51.50
6666;DHT22;3369;49.906;8.598;2023-04-06T15:36:47;13.30;51.00
6666;DHT22;3369;49.906;8.598;2023-04-06T15:39:13;13.30;51.50
6666;DHT22;3369;49.906;8.598;2023-04-06T15:41:39;13.20;51.70
6666;DHT22;3369;49.906;8.598;2023-04-06T15:44:04;13.20;51.40
6666;DHT22;3369;49.906;8.598;2023-04-06T15:46:30;13.20;52.00
6666;DHT22;3369;49.906;8.598;2023-04-06T15:48:56;13.20;51.30
6666;DHT22;3369;49.906;8.598;2023-04-06T15:51:22;13.10;50.80
6666;DHT22;3369;49.906;8.598;2023-04-06T15:53:48;13.00;50.90
6666;DHT22;3369;49.906;8.598;2023-04-06T15:56:14;13.00;51.00
6666;DHT22;3369;49.906;8.598;2023-04-06T15:58:40;13.00;51.50
6666;DHT22;3369;49.906;8.598;2023-04-06T16:01:17;12.90;52.00
6666;DHT22;3369;49.906;8.598;2023-04-06T16:03:43;12.90;52.50
6666;DHT22;3369;49.906;8.598;2023-04-06T16:06:09;12.80;52.40
6666;DHT22;3369;49.906;8.598;2023-04-06T16:08:35;12.70;52.80
6666;DHT22;3369;49.906;8.598;2023-04-06T16:11:01;12.60;53.10
6666;DHT22;3369;49.906;8.598;2023-04-06T16:13:27;12.60;53.40
6666;DHT22;3369;49.906;8.598;2023-04-06T16:15:54;12.50;53.50
6666;DHT22;3369;49.906;8.598;2023-04-06T16:18:20;12.50;53.80
6666;DHT22;3369;49.906;8.598;2023-04-06T16:20:46;12.40;53.50
6666;DHT22;3369;49.906;8.598;2023-04-06T16:23:12;12.40;53.80
6666;DHT22;3369;49.906;8.598;2023-04-06T16:25:38;12.40;54.00
6666;DHT22;3369;49.906;8.598;2023-04-06T16:28:03;12.30;54.10
6666;DHT22;3369;49.906;8.598;2023-04-06T16:30:30;12.30;54.40
6666;DHT22;3369;49.906;8.598;2023-04-06T16:32:56;12.30;55.20
6666;DHT22;3369;49.906;8.598;2023-04-06T16:35:22;12.20;55.50
6666;DHT22;3369;49.906;8.598;2023-04-06T16:37:48;12.20;55.50
6666;DHT22;3369;49.906;8.598;2023-04-06T16:40:14;12.20;55.70
6666;DHT22;3369;49.906;8.598;2023-04-06T16:42:44;12.10;55.60
6666;DHT22;3369;49.906;8.598;2023-04-06T16:45:11;12.10;55.80
6666;DHT22;3369;49.906;8.598;2023-04-06T16:47:37;12.10;55.40
6666;DHT22;3369;49.906;8.598;2023-04-06T16:50:04;12.10;56.10
6666;DHT22;3369;49.906;8.598;2023-04-06T16:52:31;12.10;56.60
6666;DHT22;3369;49.906;8.598;2023-04-06T16:54:57;12.00;56.60
6666;DHT22;3369;49.906;8.598;2023-04-06T16:57:23;12.00;56.90
6666;DHT22;3369;49.906;8.598;2023-04-06T16:59:56;11.90;56.90
6666;DHT22;3369;49.906;8.598;2023-04-06T17:02:23;11.90;56.80
6666;DHT22;3369;49.906;8.598;2023-04-06T17:04:48;11.80;57.30
6666;DHT22;3369;49.906;8.598;2023-04-06T17:07:14;11.80;57.50
6666;DHT22;3369;49.906;8.598;2023-04-06T17:09:40;11.70;57.70
6666;DHT22;3369;49.906;8.598;2023-04-06T17:12:07;11.70;57.90
6666;DHT22;3369;49.906;8.598;2023-04-06T17:14:33;11.70;58.20
6666;DHT22;3369;49.906;8.598;2023-04-06T17:16:59;11.60;59.10